sensor_id;sensor_type;location;lat;lon;timestamp;P1;durP1;ratioP1;P2;durP2;ratioP2
51927;SDS011;37953;52.806;18.270;2023-10-31T00:00:41;22.85;;;11.95;;
51927;SDS011;37953;52.806;18.270;2023-10-31T00:03:27;21.75;;;11.27;;
51927;SDS011;37953;52.806;18.270;2023-10-31T00:05:53;22.52;;;11.95;;
51927;SDS011;37953;52.806;18.270;2023-10-31T00:08:19;26.75;;;11.40;;
51927;SDS011;37953;52.806;18.270;2023-10-31T00:10:56;18.27;;;10.35;;
51927;SDS011;37953;52.806;18.270;2023-10-31T00:13:22;22.17;;;11.07;;
51927;SDS011;37953;52.806;18.270;2023-10-31T00:15:54;23.40;;;11.63;;
51927;SDS011;37953;52.806;18.270;2023-10-31T00:18:21;20.40;;;10.85;;
51927;SDS011;37953;52.806;18.270;2023-10-31T00:20:47;28.30;;;10.68;;
51927;SDS011;37953;52.806;18.270;2023-10-31T00:23:13;20.67;;;10.77;;
51927;SDS011;37953;52.806;18.270;2023-10-31T00:25:40;22.38;;;11.25;;
51927;SDS011;37953;52.806;18.270;2023-10-31T00:28:06;28.55;;;11.50;;
51927;SDS011;37953;52.806;18.270;2023-10-31T00:30:32;28.15;;;12.13;;
51927;SDS011;37953;52.806;18.270;2023-10-31T00:32:58;19.00;;;10.43;;
51927;SDS011;37953;52.806;18.270;2023-10-31T00:35:24;28.88;;;12.13;;
51927;SDS011;37953;52.806;18.270;2023-10-31T00:37:50;26.52;;;11.82;;
51927;SDS011;37953;52.806;18.270;2023-10-31T00:40:16;23.92;;;10.48;;
51927;SDS011;37953;52.806;18.270;2023-10-31T00:42:43;25.30;;;11.98;;
51927;SDS011;37953;52.806;18.270;2023-10-31T00:45:09;21.85;;;10.82;;
51927;SDS011;37953;52.806;18.270;2023-10-31T00:47:35;30.83;;;11.45;;
51927;SDS011;37953;52.806;18.270;2023-10-31T00:50:02;23.98;;;12.02;;
51927;SDS011;37953;52.806;18.270;2023-10-31T00:52:28;27.60;;;11.48;;
51927;SDS011;37953;52.806;18.270;2023-10-31T00:54:54;30.98;;;11.70;;
51927;SDS011;37953;52.806;18.270;2023-10-31T00:57:20;24.30;;;11.15;;
51927;SDS011;37953;52.806;18.270;2023-10-31T00:59:46;30.65;;;11.38;;
51927;SDS011;37953;52.806;18.270;2023-10-31T01:02:13;26.75;;;11.48;;
51927;SDS011;37953;52.806;18.270;2023-10-31T01:04:45;20.65;;;11.15;;
51927;SDS011;37953;52.806;18.270;2023-10-31T01:07:11;22.60;;;11.50;;
51927;SDS011;37953;52.806;18.270;2023-10-31T01:09:38;25.23;;;11.30;;
51927;SDS011;37953;52.806;18.270;2023-10-31T01:12:04;25.05;;;12.05;;
51927;SDS011;37953;52.806;18.270;2023-10-31T01:14:31;24.58;;;11.05;;
51927;SDS011;37953;52.806;18.270;2023-10-31T01:16:57;27.13;;;11.35;;
51927;SDS011;37953;52.806;18.270;2023-10-31T01:19:23;30.52;;;11.32;;
51927;SDS011;37953;52.806;18.270;2023-10-31T01:21:49;27.02;;;11.43;;
51927;SDS011;37953;52.806;18.270;2023-10-31T01:24:15;23.30;;;11.45;;
51927;SDS011;37953;52.806;18.270;2023-10-31T01:26:41;24.05;;;11.43;;
51927;SDS011;37953;52.806;18.270;2023-10-31T01:29:07;28.88;;;11.98;;
51927;SDS011;37953;52.806;18.270;2023-10-31T01:31:33;23.85;;;10.95;;
51927;SDS011;37953;52.806;18.270;2023-10-31T01:34:02;22.63;;;11.10;;
51927;SDS011;37953;52.806;18.270;2023-10-31T01:36:28;25.20;;;11.35;;
51927;SDS011;37953;52.806;18.270;2023-10-31T01:38:54;25.17;;;11.23;;
51927;SDS011;37953;52.806;18.270;2023-10-31T01:41:20;22.50;;;11.15;;
51927;SDS011;37953;52.806;18.270;2023-10-31T01:43:46;22.33;;;10.98;;
51927;SDS011;37953;52.806;18.270;2023-10-31T01:46:12;19.52;;;10.70;;
51927;SDS011;37953;52.806;18.270;2023-10-31T01:48:38;25.27;;;11.23;;
51927;SDS011;37953;52.806;18.270;2023-10-31T01:51:05;26.10;;;10.90;;
51927;SDS011;37953;52.806;18.270;2023-10-31T01:53:32;19.63;;;9.90;;
51927;SDS011;37953;52.806;18.270;2023-10-31T01:58:39;22.75;;;10.40;;
51927;SDS011;37953;52.806;18.270;2023-10-31T02:01:05;19.63;;;10.40;;
51927;SDS011;37953;52.806;18.270;2023-10-31T02:03:32;28.35;;;10.63;;
51927;SDS011;37953;52.806;18.270;2023-10-31T02:05:59;23.58;;;9.77;;
51927;SDS011;37953;52.806;18.270;2023-10-31T02:08:25;27.90;;;10.38;;
51927;SDS011;37953;52.806;18.270;2023-10-31T02:10:57;21.33;;;9.50;;
51927;SDS011;37953;52.806;18.270;2023-10-31T02:13:23;22.05;;;9.35;;
51927;SDS011;37953;52.806;18.270;2023-10-31T02:15:49;23.23;;;9.77;;
51927;SDS011;37953;52.806;18.270;2023-10-31T02:18:16;21.50;;;10.05;;
51927;SDS011;37953;52.806;18.270;2023-10-31T02:20:42;26.67;;;9.95;;
51927;SDS011;37953;52.806;18.270;2023-10-31T02:23:08;26.20;;;10.07;;
51927;SDS011;37953;52.806;18.270;2023-10-31T02:25:35;19.88;;;9.45;;
51927;SDS011;37953;52.806;18.270;2023-10-31T02:28:00;20.85;;;9.13;;
51927;SDS011;37953;52.806;18.270;2023-10-31T02:30:27;21.98;;;9.23;;
51927;SDS011;37953;52.806;18.270;2023-10-31T02:32:53;23.67;;;9.48;;
51927;SDS011;37953;52.806;18.270;2023-10-31T02:35:19;24.02;;;8.98;;
51927;SDS011;37953;52.806;18.270;2023-10-31T02:37:46;25.92;;;9.73;;
51927;SDS011;37953;52.806;18.270;2023-10-31T02:40:13;20.17;;;9.32;;
51927;SDS011;37953;52.806;18.270;2023-10-31T02:42:39;24.23;;;9.05;;
51927;SDS011;37953;52.806;18.270;2023-10-31T02:45:05;21.83;;;8.70;;
51927;SDS011;37953;52.806;18.270;2023-10-31T02:47:32;19.58;;;8.30;;
51927;SDS011;37953;52.806;18.270;2023-10-31T02:49:58;22.27;;;8.40;;
51927;SDS011;37953;52.806;18.270;2023-10-31T02:52:24;20.58;;;8.85;;
51927;SDS011;37953;52.806;18.270;2023-10-31T02:54:50;20.33;;;8.23;;
51927;SDS011;37953;52.806;18.270;2023-10-31T02:57:16;20.55;;;7.60;;
51927;SDS011;37953;52.806;18.270;2023-10-31T02:59:43;19.20;;;7.38;;
51927;SDS011;37953;52.806;18.270;2023-10-31T03:02:09;18.95;;;7.43;;
51927;SDS011;37953;52.806;18.270;2023-10-31T03:04:37;24.00;;;8.20;;
51927;SDS011;37953;52.806;18.270;2023-10-31T03:07:03;106.93;;;11.70;;
51927;SDS011;37953;52.806;18.270;2023-10-31T03:09:29;16.55;;;6.63;;
51927;SDS011;37953;52.806;18.270;2023-10-31T03:11:55;19.88;;;7.20;;
51927;SDS011;37953;52.806;18.270;2023-10-31T03:14:21;22.63;;;7.40;;
51927;SDS011;37953;52.806;18.270;2023-10-31T03:16:47;18.48;;;7.15;;
51927;SDS011;37953;52.806;18.270;2023-10-31T03:19:14;19.60;;;6.68;;
51927;SDS011;37953;52.806;18.270;2023-10-31T03:21:40;22.35;;;6.88;;
51927;SDS011;37953;52.806;18.270;2023-10-31T03:24:06;15.98;;;6.45;;
51927;SDS011;37953;52.806;18.270;2023-10-31T03:26:32;21.58;;;6.78;;
51927;SDS011;37953;52.806;18.270;2023-10-31T03:28:58;18.67;;;6.53;;
51927;SDS011;37953;52.806;18.270;2023-10-31T03:31:30;14.02;;;5.95;;
51927;SDS011;37953;52.806;18.270;2023-10-31T03:33:57;15.90;;;6.57;;
51927;SDS011;37953;52.806;18.270;2023-10-31T03:36:23;15.35;;;6.57;;
51927;SDS011;37953;52.806;18.270;2023-10-31T03:38:49;13.82;;;5.90;;
51927;SDS011;37953;52.806;18.270;2023-10-31T03:41:15;10.65;;;5.88;;
51927;SDS011;37953;52.806;18.270;2023-10-31T03:43:42;16.08;;;6.47;;
51927;SDS011;37953;52.806;18.270;2023-10-31T03:46:08;11.48;;;5.82;;
51927;SDS011;37953;52.806;18.270;2023-10-31T03:48:34;10.40;;;5.68;;
51927;SDS011;37953;52.806;18.270;2023-10-31T03:51:00;14.45;;;6.03;;
51927;SDS011;37953;52.806;18.270;2023-10-31T03:53:26;13.48;;;6.15;;
51927;SDS011;37953;52.806;18.270;2023-10-31T03:55:52;16.80;;;6.05;;
51927;SDS011;37953;52.806;18.270;2023-10-31T03:58:18;14.95;;;5.72;;
51927;SDS011;37953;52.806;18.270;2023-10-31T04:00:44;13.95;;;5.75;;
51927;SDS011;37953;52.806;18.270;2023-10-31T04:03:10;14.05;;;5.18;;
51927;SDS011;37953;52.806;18.270;2023-10-31T04:05:36;14.38;;;5.85;;
51927;SDS011;37953;52.806;18.270;2023-10-31T04:08:03;13.32;;;5.53;;
51927;SDS011;37953;52.806;18.270;2023-10-31T04:10:29;13.45;;;5.50;;
51927;SDS011;37953;52.806;18.270;2023-10-31T04:12:55;14.60;;;6.32;;
51927;SDS011;37953;52.806;18.270;2023-10-31T04:15:21;14.20;;;5.15;;
51927;SDS011;37953;52.806;18.270;2023-10-31T04:17:47;17.67;;;5.57;;
51927;SDS011;37953;52.806;18.270;2023-10-31T04:20:13;13.52;;;5.55;;
51927;SDS011;37953;52.806;18.270;2023-10-31T04:22:40;12.45;;;5.18;;
51927;SDS011;37953;52.806;18.270;2023-10-31T04:25:06;11.60;;;4.70;;
51927;SDS011;37953;52.806;18.270;2023-10-31T04:30:14;12.80;;;4.40;;
51927;SDS011;37953;52.806;18.270;2023-10-31T04:32:40;11.68;;;5.32;;
51927;SDS011;37953;52.806;18.270;2023-10-31T04:35:06;15.60;;;4.80;;
51927;SDS011;37953;52.806;18.270;2023-10-31T04:37:32;13.35;;;4.65;;
51927;SDS011;37953;52.806;18.270;2023-10-31T04:39:59;19.48;;;5.30;;
51927;SDS011;37953;52.806;18.270;2023-10-31T04:42:25;11.73;;;4.90;;
51927;SDS011;37953;52.806;18.270;2023-10-31T04:44:51;10.68;;;4.95;;
51927;SDS011;37953;52.806;18.270;2023-10-31T04:47:17;13.65;;;5.20;;
51927;SDS011;37953;52.806;18.270;2023-10-31T04:49:44;16.75;;;5.20;;
51927;SDS011;37953;52.806;18.270;2023-10-31T04:52:09;15.95;;;5.20;;
51927;SDS011;37953;52.806;18.270;2023-10-31T04:54:36;28.48;;;5.03;;
51927;SDS011;37953;52.806;18.270;2023-10-31T04:57:02;13.35;;;5.15;;
51927;SDS011;37953;52.806;18.270;2023-10-31T04:59:29;14.85;;;4.85;;
51927;SDS011;37953;52.806;18.270;2023-10-31T05:01:55;16.65;;;4.70;;
51927;SDS011;37953;52.806;18.270;2023-10-31T05:04:21;16.73;;;4.43;;
51927;SDS011;37953;52.806;18.270;2023-10-31T05:06:47;15.02;;;4.90;;
51927;SDS011;37953;52.806;18.270;2023-10-31T05:09:14;16.23;;;5.07;;
51927;SDS011;37953;52.806;18.270;2023-10-31T05:11:40;13.40;;;4.45;;
51927;SDS011;37953;52.806;18.270;2023-10-31T05:14:07;15.57;;;4.95;;
51927;SDS011;37953;52.806;18.270;2023-10-31T05:16:40;16.30;;;4.80;;
51927;SDS011;37953;52.806;18.270;2023-10-31T05:19:08;17.30;;;4.85;;
51927;SDS011;37953;52.806;18.270;2023-10-31T05:21:35;16.40;;;4.78;;
51927;SDS011;37953;52.806;18.270;2023-10-31T05:24:04;16.00;;;4.35;;
51927;SDS011;37953;52.806;18.270;2023-10-31T05:26:31;15.75;;;4.65;;
51927;SDS011;37953;52.806;18.270;2023-10-31T05:28:57;15.18;;;4.38;;
51927;SDS011;37953;52.806;18.270;2023-10-31T05:31:24;10.65;;;4.68;;
51927;SDS011;37953;52.806;18.270;2023-10-31T05:33:51;13.30;;;4.60;;
51927;SDS011;37953;52.806;18.270;2023-10-31T05:36:23;16.60;;;4.63;;
51927;SDS011;37953;52.806;18.270;2023-10-31T05:38:50;19.98;;;4.63;;
51927;SDS011;37953;52.806;18.270;2023-10-31T05:41:16;14.73;;;4.75;;
51927;SDS011;37953;52.806;18.270;2023-10-31T05:43:42;15.75;;;4.32;;
51927;SDS011;37953;52.806;18.270;2023-10-31T05:46:08;18.00;;;4.57;;
51927;SDS011;37953;52.806;18.270;2023-10-31T05:48:40;13.52;;;4.45;;
51927;SDS011;37953;52.806;18.270;2023-10-31T05:51:13;13.95;;;4.65;;
51927;SDS011;37953;52.806;18.270;2023-10-31T05:53:47;14.35;;;4.40;;
51927;SDS011;37953;52.806;18.270;2023-10-31T05:56:14;26.80;;;5.03;;
51927;SDS011;37953;52.806;18.270;2023-10-31T05:58:47;17.40;;;4.75;;
51927;SDS011;37953;52.806;18.270;2023-10-31T06:01:13;17.23;;;5.07;;
51927;SDS011;37953;52.806;18.270;2023-10-31T06:03:42;17.05;;;4.80;;
51927;SDS011;37953;52.806;18.270;2023-10-31T06:06:11;13.00;;;4.40;;
51927;SDS011;37953;52.806;18.270;2023-10-31T06:08:38;17.63;;;5.75;;
51927;SDS011;37953;52.806;18.270;2023-10-31T06:11:05;15.73;;;5.15;;
51927;SDS011;37953;52.806;18.270;2023-10-31T06:13:31;22.30;;;5.15;;
51927;SDS011;37953;52.806;18.270;2023-10-31T06:15:57;17.02;;;5.47;;
51927;SDS011;37953;52.806;18.270;2023-10-31T06:18:23;15.73;;;5.20;;
51927;SDS011;37953;52.806;18.270;2023-10-31T06:20:58;19.30;;;5.72;;
51927;SDS011;37953;52.806;18.270;2023-10-31T06:23:24;18.73;;;5.93;;
51927;SDS011;37953;52.806;18.270;2023-10-31T06:25:50;16.25;;;5.22;;
51927;SDS011;37953;52.806;18.270;2023-10-31T06:28:16;16.48;;;5.50;;
51927;SDS011;37953;52.806;18.270;2023-10-31T06:30:42;15.93;;;6.03;;
51927;SDS011;37953;52.806;18.270;2023-10-31T06:33:09;20.70;;;6.20;;
51927;SDS011;37953;52.806;18.270;2023-10-31T06:35:36;18.85;;;6.55;;
51927;SDS011;37953;52.806;18.270;2023-10-31T06:38:02;32.78;;;8.38;;
51927;SDS011;37953;52.806;18.270;2023-10-31T06:40:31;26.90;;;8.20;;
51927;SDS011;37953;52.806;18.270;2023-10-31T06:42:57;29.42;;;10.20;;
51927;SDS011;37953;52.806;18.270;2023-10-31T06:45:24;24.63;;;10.10;;
51927;SDS011;37953;52.806;18.270;2023-10-31T06:47:57;17.88;;;8.68;;
51927;SDS011;37953;52.806;18.270;2023-10-31T06:50:24;26.42;;;8.05;;
51927;SDS011;37953;52.806;18.270;2023-10-31T06:52:50;23.15;;;7.10;;
51927;SDS011;37953;52.806;18.270;2023-10-31T06:55:16;21.23;;;6.85;;
51927;SDS011;37953;52.806;18.270;2023-10-31T06:57:42;26.50;;;6.10;;
51927;SDS011;37953;52.806;18.270;2023-10-31T07:00:10;21.60;;;5.63;;
51927;SDS011;37953;52.806;18.270;2023-10-31T07:02:39;23.90;;;5.25;;
51927;SDS011;37953;52.806;18.270;2023-10-31T07:05:06;22.88;;;4.78;;
51927;SDS011;37953;52.806;18.270;2023-10-31T07:07:32;30.77;;;5.50;;
51927;SDS011;37953;52.806;18.270;2023-10-31T07:09:58;28.15;;;4.60;;
51927;SDS011;37953;52.806;18.270;2023-10-31T07:12:24;20.02;;;4.90;;
51927;SDS011;37953;52.806;18.270;2023-10-31T07:14:51;22.98;;;5.88;;
51927;SDS011;37953;52.806;18.270;2023-10-31T07:17:17;21.67;;;5.05;;
51927;SDS011;37953;52.806;18.270;2023-10-31T07:19:43;26.65;;;5.22;;
51927;SDS011;37953;52.806;18.270;2023-10-31T07:22:09;19.10;;;5.47;;
51927;SDS011;37953;52.806;18.270;2023-10-31T07:24:35;26.40;;;5.88;;
51927;SDS011;37953;52.806;18.270;2023-10-31T07:27:01;30.77;;;8.43;;
51927;SDS011;37953;52.806;18.270;2023-10-31T07:29:28;25.55;;;7.50;;
51927;SDS011;37953;52.806;18.270;2023-10-31T07:31:54;23.13;;;7.63;;
51927;SDS011;37953;52.806;18.270;2023-10-31T07:34:27;27.02;;;7.28;;
51927;SDS011;37953;52.806;18.270;2023-10-31T07:36:54;24.98;;;6.68;;
51927;SDS011;37953;52.806;18.270;2023-10-31T07:39:28;23.33;;;5.70;;
51927;SDS011;37953;52.806;18.270;2023-10-31T07:41:54;18.30;;;6.32;;
51927;SDS011;37953;52.806;18.270;2023-10-31T07:44:20;25.23;;;5.47;;
51927;SDS011;37953;52.806;18.270;2023-10-31T07:46:46;20.08;;;5.50;;
51927;SDS011;37953;52.806;18.270;2023-10-31T07:49:13;25.75;;;6.15;;
51927;SDS011;37953;52.806;18.270;2023-10-31T07:51:39;17.80;;;6.20;;
51927;SDS011;37953;52.806;18.270;2023-10-31T07:54:06;20.25;;;5.57;;
51927;SDS011;37953;52.806;18.270;2023-10-31T07:56:32;17.55;;;5.15;;
51927;SDS011;37953;52.806;18.270;2023-10-31T07:59:02;22.92;;;6.15;;
51927;SDS011;37953;52.806;18.270;2023-10-31T08:01:28;22.05;;;5.57;;
51927;SDS011;37953;52.806;18.270;2023-10-31T08:03:55;18.70;;;5.85;;
51927;SDS011;37953;52.806;18.270;2023-10-31T08:06:21;19.45;;;5.97;;
51927;SDS011;37953;52.806;18.270;2023-10-31T08:08:47;30.50;;;10.80;;
51927;SDS011;37953;52.806;18.270;2023-10-31T08:11:13;23.67;;;6.80;;
51927;SDS011;37953;52.806;18.270;2023-10-31T08:13:39;22.75;;;6.95;;
51927;SDS011;37953;52.806;18.270;2023-10-31T08:16:06;26.50;;;7.95;;
51927;SDS011;37953;52.806;18.270;2023-10-31T08:18:33;22.58;;;8.55;;
51927;SDS011;37953;52.806;18.270;2023-10-31T08:20:59;21.75;;;9.10;;
51927;SDS011;37953;52.806;18.270;2023-10-31T08:23:32;31.58;;;9.07;;
51927;SDS011;37953;52.806;18.270;2023-10-31T08:25:58;22.85;;;7.32;;
51927;SDS011;37953;52.806;18.270;2023-10-31T08:28:24;24.63;;;7.53;;
51927;SDS011;37953;52.806;18.270;2023-10-31T08:30:50;19.92;;;6.72;;
51927;SDS011;37953;52.806;18.270;2023-10-31T08:33:16;22.60;;;6.25;;
51927;SDS011;37953;52.806;18.270;2023-10-31T08:35:42;20.88;;;5.95;;
51927;SDS011;37953;52.806;18.270;2023-10-31T08:38:09;21.95;;;6.60;;
51927;SDS011;37953;52.806;18.270;2023-10-31T08:40:35;22.42;;;6.32;;
51927;SDS011;37953;52.806;18.270;2023-10-31T08:43:02;24.33;;;6.25;;
51927;SDS011;37953;52.806;18.270;2023-10-31T08:45:29;12.98;;;5.53;;
51927;SDS011;37953;52.806;18.270;2023-10-31T08:47:55;19.55;;;5.80;;
51927;SDS011;37953;52.806;18.270;2023-10-31T08:50:21;16.40;;;6.00;;
51927;SDS011;37953;52.806;18.270;2023-10-31T08:52:48;20.77;;;6.70;;
51927;SDS011;37953;52.806;18.270;2023-10-31T08:55:14;19.10;;;6.70;;
51927;SDS011;37953;52.806;18.270;2023-10-31T08:57:43;17.77;;;6.35;;
51927;SDS011;37953;52.806;18.270;2023-10-31T09:00:09;15.38;;;5.53;;
51927;SDS011;37953;52.806;18.270;2023-10-31T09:02:36;18.33;;;7.18;;
51927;SDS011;37953;52.806;18.270;2023-10-31T09:05:01;19.23;;;7.40;;
51927;SDS011;37953;52.806;18.270;2023-10-31T09:07:28;130.00;;;10.75;;
51927;SDS011;37953;52.806;18.270;2023-10-31T09:09:54;13.25;;;6.25;;
51927;SDS011;37953;52.806;18.270;2023-10-31T09:12:20;17.05;;;7.13;;
51927;SDS011;37953;52.806;18.270;2023-10-31T09:14:46;13.05;;;5.55;;
51927;SDS011;37953;52.806;18.270;2023-10-31T09:17:13;23.77;;;9.30;;
51927;SDS011;37953;52.806;18.270;2023-10-31T09:19:39;18.30;;;7.85;;
51927;SDS011;37953;52.806;18.270;2023-10-31T09:22:08;14.50;;;5.40;;
51927;SDS011;37953;52.806;18.270;2023-10-31T09:24:34;18.45;;;5.70;;
51927;SDS011;37953;52.806;18.270;2023-10-31T09:27:00;14.43;;;6.18;;
51927;SDS011;37953;52.806;18.270;2023-10-31T09:29:26;12.75;;;5.15;;
51927;SDS011;37953;52.806;18.270;2023-10-31T09:31:53;13.57;;;4.70;;
51927;SDS011;37953;52.806;18.270;2023-10-31T09:34:19;11.95;;;4.45;;
51927;SDS011;37953;52.806;18.270;2023-10-31T09:36:45;11.38;;;4.47;;
51927;SDS011;37953;52.806;18.270;2023-10-31T09:39:14;11.73;;;4.40;;
51927;SDS011;37953;52.806;18.270;2023-10-31T09:41:41;21.02;;;8.55;;
51927;SDS011;37953;52.806;18.270;2023-10-31T09:44:07;13.93;;;5.82;;
51927;SDS011;37953;52.806;18.270;2023-10-31T09:46:33;13.25;;;5.22;;
51927;SDS011;37953;52.806;18.270;2023-10-31T09:49:00;14.25;;;4.30;;
51927;SDS011;37953;52.806;18.270;2023-10-31T09:51:28;13.70;;;4.82;;
51927;SDS011;37953;52.806;18.270;2023-10-31T09:53:54;18.20;;;4.82;;
51927;SDS011;37953;52.806;18.270;2023-10-31T09:56:22;15.63;;;4.53;;
51927;SDS011;37953;52.806;18.270;2023-10-31T09:58:48;14.75;;;4.22;;
51927;SDS011;37953;52.806;18.270;2023-10-31T10:01:15;12.90;;;4.07;;
51927;SDS011;37953;52.806;18.270;2023-10-31T10:03:41;23.27;;;4.63;;
51927;SDS011;37953;52.806;18.270;2023-10-31T10:06:11;12.38;;;3.70;;
51927;SDS011;37953;52.806;18.270;2023-10-31T10:08:37;9.48;;;4.03;;
51927;SDS011;37953;52.806;18.270;2023-10-31T10:11:04;14.73;;;4.28;;
51927;SDS011;37953;52.806;18.270;2023-10-31T10:13:31;15.23;;;6.20;;
51927;SDS011;37953;52.806;18.270;2023-10-31T10:15:58;11.18;;;4.50;;
51927;SDS011;37953;52.806;18.270;2023-10-31T10:18:26;10.73;;;4.28;;
51927;SDS011;37953;52.806;18.270;2023-10-31T10:20:57;9.45;;;4.88;;
51927;SDS011;37953;52.806;18.270;2023-10-31T10:23:25;13.48;;;5.00;;
51927;SDS011;37953;52.806;18.270;2023-10-31T10:25:54;7.45;;;4.45;;
51927;SDS011;37953;52.806;18.270;2023-10-31T10:28:21;8.98;;;4.35;;
51927;SDS011;37953;52.806;18.270;2023-10-31T10:30:54;10.70;;;4.18;;
51927;SDS011;37953;52.806;18.270;2023-10-31T10:33:20;8.90;;;4.47;;
51927;SDS011;37953;52.806;18.270;2023-10-31T10:35:47;11.10;;;4.68;;
51927;SDS011;37953;52.806;18.270;2023-10-31T10:38:14;10.45;;;4.70;;
51927;SDS011;37953;52.806;18.270;2023-10-31T10:40:46;13.75;;;4.95;;
51927;SDS011;37953;52.806;18.270;2023-10-31T10:43:20;15.23;;;4.72;;
51927;SDS011;37953;52.806;18.270;2023-10-31T10:45:55;9.07;;;4.35;;
51927;SDS011;37953;52.806;18.270;2023-10-31T10:48:23;13.38;;;4.38;;
51927;SDS011;37953;52.806;18.270;2023-10-31T10:53:49;14.95;;;4.45;;
51927;SDS011;37953;52.806;18.270;2023-10-31T10:56:26;15.05;;;5.28;;
51927;SDS011;37953;52.806;18.270;2023-10-31T10:59:02;9.82;;;4.82;;
51927;SDS011;37953;52.806;18.270;2023-10-31T11:01:33;10.93;;;5.00;;
51927;SDS011;37953;52.806;18.270;2023-10-31T11:04:01;10.77;;;4.50;;
51927;SDS011;37953;52.806;18.270;2023-10-31T11:06:29;13.88;;;4.78;;
51927;SDS011;37953;52.806;18.270;2023-10-31T11:08:55;8.65;;;3.67;;
51927;SDS011;37953;52.806;18.270;2023-10-31T11:11:22;11.90;;;3.85;;
51927;SDS011;37953;52.806;18.270;2023-10-31T11:13:49;8.57;;;3.38;;
51927;SDS011;37953;52.806;18.270;2023-10-31T11:19:09;8.70;;;3.47;;
51927;SDS011;37953;52.806;18.270;2023-10-31T11:21:37;8.65;;;3.10;;
51927;SDS011;37953;52.806;18.270;2023-10-31T11:25:12;6.97;;;2.60;;
51927;SDS011;37953;52.806;18.270;2023-10-31T11:27:19;8.65;;;2.97;;
51927;SDS011;37953;52.806;18.270;2023-10-31T11:29:46;9.23;;;2.85;;
51927;SDS011;37953;52.806;18.270;2023-10-31T11:32:14;9.98;;;2.33;;
51927;SDS011;37953;52.806;18.270;2023-10-31T11:34:41;8.80;;;2.67;;
51927;SDS011;37953;52.806;18.270;2023-10-31T11:42:42;6.75;;;2.25;;
51927;SDS011;37953;52.806;18.270;2023-10-31T11:45:09;6.95;;;2.15;;
51927;SDS011;37953;52.806;18.270;2023-10-31T11:47:48;15.25;;;3.10;;
51927;SDS011;37953;52.806;18.270;2023-10-31T11:50:15;11.88;;;3.67;;
51927;SDS011;37953;52.806;18.270;2023-10-31T11:52:42;10.13;;;2.65;;
51927;SDS011;37953;52.806;18.270;2023-10-31T11:58:23;8.38;;;2.40;;
51927;SDS011;37953;52.806;18.270;2023-10-31T12:00:56;11.55;;;2.33;;
51927;SDS011;37953;52.806;18.270;2023-10-31T12:03:39;12.85;;;2.40;;
51927;SDS011;37953;52.806;18.270;2023-10-31T12:06:29;11.80;;;2.38;;
51927;SDS011;37953;52.806;18.270;2023-10-31T12:08:58;11.45;;;2.35;;
51927;SDS011;37953;52.806;18.270;2023-10-31T12:11:25;9.05;;;2.83;;
51927;SDS011;37953;52.806;18.270;2023-10-31T12:16:28;9.20;;;2.50;;
51927;SDS011;37953;52.806;18.270;2023-10-31T12:21:37;6.63;;;2.53;;
51927;SDS011;37953;52.806;18.270;2023-10-31T12:24:13;13.35;;;3.60;;
51927;SDS011;37953;52.806;18.270;2023-10-31T12:26:41;12.18;;;2.95;;
51927;SDS011;37953;52.806;18.270;2023-10-31T12:29:15;12.65;;;3.00;;
51927;SDS011;37953;52.806;18.270;2023-10-31T12:31:49;11.07;;;3.03;;
51927;SDS011;37953;52.806;18.270;2023-10-31T12:34:21;10.68;;;2.80;;
51927;SDS011;37953;52.806;18.270;2023-10-31T12:36:49;8.52;;;2.20;;
51927;SDS011;37953;52.806;18.270;2023-10-31T12:39:22;8.82;;;2.40;;
51927;SDS011;37953;52.806;18.270;2023-10-31T12:41:51;11.27;;;2.53;;
51927;SDS011;37953;52.806;18.270;2023-10-31T12:44:23;16.95;;;3.22;;
51927;SDS011;37953;52.806;18.270;2023-10-31T12:46:50;9.45;;;2.28;;
51927;SDS011;37953;52.806;18.270;2023-10-31T12:49:18;13.63;;;2.45;;
51927;SDS011;37953;52.806;18.270;2023-10-31T12:51:55;10.23;;;2.47;;
51927;SDS011;37953;52.806;18.270;2023-10-31T12:54:35;17.88;;;2.22;;
51927;SDS011;37953;52.806;18.270;2023-10-31T12:59:33;17.02;;;2.40;;
51927;SDS011;37953;52.806;18.270;2023-10-31T13:02:00;6.22;;;2.08;;
51927;SDS011;37953;52.806;18.270;2023-10-31T13:04:26;13.95;;;2.08;;
51927;SDS011;37953;52.806;18.270;2023-10-31T13:07:00;9.90;;;2.10;;
51927;SDS011;37953;52.806;18.270;2023-10-31T13:09:31;5.90;;;1.90;;
51927;SDS011;37953;52.806;18.270;2023-10-31T13:12:01;4.70;;;2.22;;
51927;SDS011;37953;52.806;18.270;2023-10-31T13:14:29;8.40;;;2.95;;
51927;SDS011;37953;52.806;18.270;2023-10-31T13:16:55;14.48;;;3.05;;
51927;SDS011;37953;52.806;18.270;2023-10-31T13:19:21;6.03;;;2.40;;
51927;SDS011;37953;52.806;18.270;2023-10-31T13:21:48;11.95;;;3.67;;
51927;SDS011;37953;52.806;18.270;2023-10-31T13:24:27;4.07;;;2.42;;
51927;SDS011;37953;52.806;18.270;2023-10-31T13:26:53;7.22;;;2.75;;
51927;SDS011;37953;52.806;18.270;2023-10-31T13:29:19;6.10;;;2.78;;
51927;SDS011;37953;52.806;18.270;2023-10-31T13:31:46;4.57;;;2.78;;
51927;SDS011;37953;52.806;18.270;2023-10-31T13:34:12;9.85;;;2.88;;
51927;SDS011;37953;52.806;18.270;2023-10-31T13:36:38;6.78;;;2.90;;
51927;SDS011;37953;52.806;18.270;2023-10-31T13:39:04;11.23;;;2.92;;
51927;SDS011;37953;52.806;18.270;2023-10-31T13:41:31;13.20;;;3.70;;
51927;SDS011;37953;52.806;18.270;2023-10-31T13:43:57;29.73;;;4.03;;
51927;SDS011;37953;52.806;18.270;2023-10-31T13:46:23;9.95;;;2.90;;
51927;SDS011;37953;52.806;18.270;2023-10-31T13:48:49;13.18;;;3.45;;
51927;SDS011;37953;52.806;18.270;2023-10-31T13:51:15;11.90;;;2.28;;
51927;SDS011;37953;52.806;18.270;2023-10-31T13:53:42;7.65;;;2.63;;
51927;SDS011;37953;52.806;18.270;2023-10-31T13:56:09;10.38;;;2.70;;
51927;SDS011;37953;52.806;18.270;2023-10-31T13:58:35;10.43;;;2.63;;
51927;SDS011;37953;52.806;18.270;2023-10-31T14:01:01;10.85;;;2.38;;
51927;SDS011;37953;52.806;18.270;2023-10-31T14:03:28;10.38;;;2.40;;
51927;SDS011;37953;52.806;18.270;2023-10-31T14:05:54;9.43;;;1.83;;
51927;SDS011;37953;52.806;18.270;2023-10-31T14:08:21;13.20;;;2.25;;
51927;SDS011;37953;52.806;18.270;2023-10-31T14:10:47;12.45;;;1.98;;
51927;SDS011;37953;52.806;18.270;2023-10-31T14:13:14;11.73;;;2.28;;
51927;SDS011;37953;52.806;18.270;2023-10-31T14:15:41;11.77;;;1.48;;
51927;SDS011;37953;52.806;18.270;2023-10-31T14:18:07;6.13;;;1.45;;
51927;SDS011;37953;52.806;18.270;2023-10-31T14:20:33;11.27;;;1.63;;
51927;SDS011;37953;52.806;18.270;2023-10-31T14:23:02;11.10;;;1.85;;
51927;SDS011;37953;52.806;18.270;2023-10-31T14:25:28;7.75;;;1.98;;
51927;SDS011;37953;52.806;18.270;2023-10-31T14:27:54;21.27;;;2.30;;
51927;SDS011;37953;52.806;18.270;2023-10-31T14:30:21;8.07;;;2.17;;
51927;SDS011;37953;52.806;18.270;2023-10-31T14:32:47;16.65;;;2.20;;
51927;SDS011;37953;52.806;18.270;2023-10-31T14:35:13;5.50;;;2.05;;
51927;SDS011;37953;52.806;18.270;2023-10-31T14:37:41;10.63;;;2.40;;
51927;SDS011;37953;52.806;18.270;2023-10-31T14:40:10;10.60;;;3.13;;
51927;SDS011;37953;52.806;18.270;2023-10-31T14:42:36;14.13;;;2.78;;
51927;SDS011;37953;52.806;18.270;2023-10-31T14:45:02;12.50;;;2.60;;
51927;SDS011;37953;52.806;18.270;2023-10-31T14:47:29;11.38;;;2.60;;
51927;SDS011;37953;52.806;18.270;2023-10-31T14:49:55;14.85;;;3.33;;